Gunnar Thorson — OUDU — position and weather

sailwx.info

Track history (hours):
 
Tides and Currents Weather Stations Pressure Air Temp Water Temp Dewpoint Dewpoint Depression Visibility Wind Speed Wind Dir Waves Ship Positions

Oceanographic research ship Gunnar Thorson (Denmark)

Detailed information on ship capabilities available from University of Delaware's Ocean Information Center.

Last reported at 2017-Aug-24 07:00 UTC. Time now 2017-Aug-24 06:59 UTC.
Position N 57°37' E 010°03'.

Length 48 m; draft 4.2 m.

Type: Military. MMSI: 219263000.

Date/timePositionNaut miles runAvg speedWind from/ knotsBaromVisibWave heightAir tempDewpointWater temp
2017-Aug-24 07:00N 57°37' E 010°03'0 0.9
2017-Aug-24 06:30N 57°37' E 010°02'3 5.1
2017-Aug-24 06:00N 57°36' E 009°58'0 0.1
2017-Aug-24 04:46N 57°36' E 009°58'0 0.0
2017-Aug-24 02:55N 57°36' E 009°58'0 0.0
2017-Aug-24 02:04N 57°36' E 009°58'0 0.0
2017-Aug-24 01:55N 57°36' E 009°58'0 0.0
2017-Aug-24 01:25N 57°36' E 009°58'0 0.0
2017-Aug-24 00:58N 57°36' E 009°58'0 0.0
2017-Aug-24 00:22N 57°36' E 009°58'0 0.0
2017-Aug-23 23:55N 57°36' E 009°58'0 0.0
2017-Aug-23 23:10N 57°36' E 009°58'0 0.0
2017-Aug-23 22:43N 57°36' E 009°58'0 0.0
2017-Aug-23 22:22N 57°36' E 009°58'0 0.0
2017-Aug-23 21:58N 57°36' E 009°58'0 0.0
2017-Aug-23 21:28N 57°36' E 009°58'0 0.0
2017-Aug-23 20:13N 57°36' E 009°58'0 0.0
2017-Aug-23 19:19N 57°36' E 009°58'0 0.0
2017-Aug-23 18:58N 57°36' E 009°58'0 0.0
2017-Aug-23 18:10N 57°36' E 009°58'0 0.0
2017-Aug-23 17:58N 57°36' E 009°58'0 0.0
2017-Aug-23 17:01N 57°36' E 009°58'0 0.0
2017-Aug-23 16:49N 57°36' E 009°58'0 0.0
2017-Aug-23 16:19N 57°36' E 009°58'0 0.0
2017-Aug-23 15:58N 57°36' E 009°58'0 0.0
2017-Aug-23 15:25N 57°36' E 009°58'0 0.0
2017-Aug-23 14:58N 57°36' E 009°58'2 1.5
2017-Aug-23 13:56N 57°37' E 009°60'3 6.0
2017-Aug-23 13:25N 57°40' E 010°03'2 4.9
2017-Aug-23 12:57N 57°42' E 010°04'7 5.0
2017-Aug-23 11:32N 57°42' E 010°17'2 6.9
2017-Aug-23 11:16N 57°42' E 010°20'0 1.4
2017-Aug-23 10:59N 57°42' E 010°20'0 0.1
2017-Aug-23 10:31N 57°42' E 010°20'0 0.2
2017-Aug-23 10:00N 57°42' E 010°21'0 0.4
2017-Aug-23 09:30N 57°43' E 010°20'0 0.2
2017-Aug-23 08:58N 57°42' E 010°20'4 8.3
2017-Aug-23 08:30N 57°44' E 010°27'511.1
2017-Aug-23 08:00N 57°46' E 010°36'4 7.7
2017-Aug-23 07:25N 57°44' E 010°44'511.6
2017-Aug-23 07:00N 57°39' E 010°39'3 6.9
2017-Aug-23 06:30N 57°38' E 010°34'1 0.3
2017-Aug-23 04:58N 57°38' E 010°34'0 0.0
2017-Aug-23 03:58N 57°38' E 010°34'0 0.0
2017-Aug-23 02:40N 57°38' E 010°34'0 0.0
2017-Aug-23 02:04N 57°38' E 010°34'0 0.0
2017-Aug-23 01:37N 57°38' E 010°34'0 0.0
2017-Aug-23 01:22N 57°38' E 010°34'0 0.0
2017-Aug-23 00:40N 57°38' E 010°34'0 0.0
2017-Aug-23 00:16N 57°38' E 010°34'0 0.0
2017-Aug-22 23:55N 57°38' E 010°34'0 0.0
2017-Aug-22 23:25N 57°38' E 010°34'0 0.0
2017-Aug-22 22:58N 57°38' E 010°34'0 0.0
2017-Aug-22 22:28N 57°38' E 010°34'0 0.0
2017-Aug-22 21:55N 57°38' E 010°34'0 0.0
2017-Aug-22 21:28N 57°38' E 010°34'0 0.0
2017-Aug-22 20:55N 57°38' E 010°34'0 0.0
2017-Aug-22 20:22N 57°38' E 010°34'0 0.0
2017-Aug-22 19:58N 57°38' E 010°34'0 0.0
2017-Aug-22 19:28N 57°38' E 010°34'0 0.0
2017-Aug-22 18:58N 57°38' E 010°34'0 0.0
2017-Aug-22 18:25N 57°38' E 010°34'0 0.8
2017-Aug-22 18:00N 57°38' E 010°34'4 8.2
2017-Aug-22 17:30N 57°34' E 010°37'611.4
2017-Aug-22 17:00N 57°29' E 010°39'4 8.4
2017-Aug-22 16:30N 57°26' E 010°33'0 0.3
2017-Aug-22 15:59N 57°26' E 010°32'0 0.0
2017-Aug-22 14:41N 57°26' E 010°32'0 0.0
2017-Aug-22 13:14N 57°26' E 010°32'0 0.1
2017-Aug-22 13:00N 57°26' E 010°32'3 6.3
2017-Aug-22 12:30N 57°27' E 010°38'5 9.8
2017-Aug-22 12:00N 57°32' E 010°37'1 2.8
2017-Aug-22 11:30N 57°33' E 010°35'1 2.0
2017-Aug-22 11:00N 57°34' E 010°34'0 0.7
2017-Aug-22 10:27N 57°34' E 010°34'0 0.7
2017-Aug-22 10:01N 57°33' E 010°34'0 0.8
2017-Aug-22 09:30N 57°33' E 010°35'0 0.9
2017-Aug-22 09:01N 57°34' E 010°36'1 1.1
2017-Aug-22 08:30N 57°34' E 010°37'1 2.2
2017-Aug-22 07:57N 57°33' E 010°37'1 2.9
2017-Aug-22 07:31N 57°31' E 010°36'2 3.2
2017-Aug-22 06:51N 57°30' E 010°39'411.1
2017-Aug-22 06:30N 57°26' E 010°37'1 1.5
2017-Aug-22 05:32N 57°25' E 010°35'010.8
2017-Aug-22 05:31N 57°25' E 010°35'1 0.6
2017-Aug-22 04:30N 57°24' E 010°35'0 0.0
2017-Aug-22 03:27N 57°24' E 010°35'0 0.0
2017-Aug-22 02:57N 57°24' E 010°35'0 0.0
2017-Aug-22 02:21N 57°24' E 010°35'0 0.0
2017-Aug-22 01:24N 57°24' E 010°35'0 0.0
2017-Aug-22 00:24N 57°24' E 010°35'0 0.0
2017-Aug-22 00:00N 57°24' E 010°35'0 0.0
2017-Aug-21 22:51N 57°24' E 010°35'0 0.0
2017-Aug-21 21:48N 57°24' E 010°35'0 0.0
2017-Aug-21 20:12N 57°24' E 010°35'0 0.0
2017-Aug-21 19:48N 57°24' E 010°35'0 0.0
2017-Aug-21 19:30N 57°24' E 010°35'0 0.1
2017-Aug-21 19:00N 57°24' E 010°35'4 7.9
2017-Aug-21 18:30N 57°28' E 010°39'510.3
2017-Aug-21 18:00N 57°32' E 010°45'510.6
2017-Aug-21 17:30N 57°36' E 010°51'3 5.9
2017-Aug-21 17:00N 57°38' E 010°53'1 2.1
2017-Aug-21 16:30N 57°39' E 010°51'1 1.5
2017-Aug-21 15:59N 57°38' E 010°53'1 1.3
2017-Aug-21 15:29N 57°39' E 010°52'1 2.5
2017-Aug-21 14:57N 57°39' E 010°54'1 1.5
2017-Aug-21 14:29N 57°39' E 010°53'1 1.4
2017-Aug-21 14:00N 57°39' E 010°52'3 5.9
2017-Aug-21 13:30N 57°36' E 010°48'611.5
2017-Aug-21 13:00N 57°32' E 010°43'4 8.2
2017-Aug-21 12:30N 57°28' E 010°39'4 7.9
2017-Aug-21 12:00N 57°26' E 010°33'0 0.4
2017-Aug-21 11:18N 57°26' E 010°32'0 0.0
2017-Aug-21 10:54N 57°26' E 010°32'0 0.0
2017-Aug-21 10:24N 57°26' E 010°32'0 0.0
2017-Aug-21 09:57N 57°26' E 010°32'0 0.0
2017-Aug-21 08:57N 57°26' E 010°32'0 0.0
2017-Aug-21 08:30N 57°26' E 010°32'0 0.0
2017-Aug-21 06:39N 57°26' E 010°32'0 0.0
2017-Aug-21 04:45N 57°26' E 010°32'0 0.0
2017-Aug-21 03:36N 57°26' E 010°32'0 0.0
2017-Aug-21 03:21N 57°26' E 010°32'0 0.0
2017-Aug-21 02:30N 57°26' E 010°32'0 0.0
2017-Aug-21 01:48N 57°26' E 010°32'0 0.0
2017-Aug-21 01:27N 57°26' E 010°32'0 0.0
2017-Aug-21 00:33N 57°26' E 010°32'0 0.0
2017-Aug-21 00:27N 57°26' E 010°32'0 0.0
2017-Aug-20 23:42N 57°26' E 010°32'0 0.0
2017-Aug-20 23:12N 57°26' E 010°32'0 0.0
2017-Aug-20 22:51N 57°26' E 010°32'0 0.0
2017-Aug-20 22:27N 57°26' E 010°32'0 0.0
2017-Aug-20 21:57N 57°26' E 010°32'0 0.0
2017-Aug-20 21:24N 57°26' E 010°32'0 0.0
2017-Aug-20 18:51N 57°26' E 010°32'0 0.0
2017-Aug-20 17:45N 57°26' E 010°32'0 0.0
2017-Aug-20 17:27N 57°26' E 010°32'0 0.0
2017-Aug-20 14:57N 57°26' E 010°32'0 0.0
2017-Aug-20 14:27N 57°26' E 010°32'0 0.0
2017-Aug-20 13:51N 57°26' E 010°32'0 0.0
2017-Aug-20 13:21N 57°26' E 010°32'0 0.0
2017-Aug-20 11:15N 57°26' E 010°32'0 0.0
2017-Aug-20 10:51N 57°26' E 010°32'0 0.0
2017-Aug-20 10:29N 57°26' E 010°32'0 0.0
2017-Aug-20 09:51N 57°26' E 010°32'0 0.0
2017-Aug-20 09:27N 57°26' E 010°32'0 0.0
2017-Aug-20 06:09N 57°26' E 010°32'0 0.0
2017-Aug-20 05:41N 57°26' E 010°32'0 0.0
2017-Aug-20 05:27N 57°26' E 010°32'0 0.0
2017-Aug-20 04:45N 57°26' E 010°32'0 0.0
2017-Aug-20 02:59N 57°26' E 010°32'0 0.0
2017-Aug-20 02:08N 57°26' E 010°32'0 0.0
2017-Aug-20 01:56N 57°26' E 010°32'0 0.0
2017-Aug-20 01:29N 57°26' E 010°32'0 0.0
2017-Aug-20 00:38N 57°26' E 010°32'0 0.0
2017-Aug-19 23:08N 57°26' E 010°32'0 0.0
2017-Aug-19 22:56N 57°26' E 010°32'0 0.0
2017-Aug-19 21:44N 57°26' E 010°32'0 0.0
2017-Aug-19 21:26N 57°26' E 010°32'0 0.0
2017-Aug-19 20:50N 57°26' E 010°32'0 0.0
2017-Aug-19 20:14N 57°26' E 010°32'0 0.0
2017-Aug-19 19:53N 57°26' E 010°32'0 0.0
2017-Aug-19 19:14N 57°26' E 010°32'0 0.0
2017-Aug-19 18:44N 57°26' E 010°32'0 0.0
2017-Aug-19 16:32N 57°26' E 010°32'0 0.0
2017-Aug-19 16:14N 57°26' E 010°32'0 0.0
2017-Aug-19 15:53N 57°26' E 010°32'0 0.0
2017-Aug-19 14:53N 57°26' E 010°32'0 0.0
2017-Aug-19 13:23N 57°26' E 010°32'0 0.0
2017-Aug-19 12:38N 57°26' E 010°32'0 0.0
2017-Aug-19 11:38N 57°26' E 010°32'0 0.0
2017-Aug-19 11:11N 57°26' E 010°32'0 0.0
2017-Aug-19 10:53N 57°26' E 010°32'0 0.0
2017-Aug-19 10:29N 57°26' E 010°32'0 0.0
2017-Aug-19 09:14N 57°26' E 010°32'0 0.0
2017-Aug-19 08:47N 57°26' E 010°32'0 0.0
2017-Aug-19 08:17N 57°26' E 010°32'0 0.0
2017-Aug-19 07:32N 57°26' E 010°32'0 0.0
2017-Aug-19 07:20N 57°26' E 010°32'0 0.0
2017-Aug-19 06:56N 57°26' E 010°32'0 0.0
2017-Aug-19 06:29N 57°26' E 010°32'0 0.0
2017-Aug-19 05:23N 57°26' E 010°32'0 0.0
2017-Aug-19 04:56N 57°26' E 010°32'0 0.0
2017-Aug-19 03:10N 57°26' E 010°32'0 0.0
2017-Aug-19 02:08N 57°26' E 010°32'0 0.0
2017-Aug-18 22:14N 57°26' E 010°32'0 0.0
2017-Aug-18 21:58N 57°26' E 010°32'0 0.0
2017-Aug-18 21:14N 57°26' E 010°32'0 0.0
2017-Aug-18 20:44N 57°26' E 010°32'0 0.0
2017-Aug-18 20:28N 57°26' E 010°32'0 0.0
2017-Aug-18 19:52N 57°26' E 010°32'0 0.0
2017-Aug-18 19:25N 57°26' E 010°32'0 0.0
2017-Aug-18 18:58N 57°26' E 010°32'0 0.0
2017-Aug-18 18:19N 57°26' E 010°32'0 0.0
2017-Aug-18 17:55N 57°26' E 010°32'0 0.0
2017-Aug-18 16:19N 57°26' E 010°32'0 0.0
2017-Aug-18 15:52N 57°26' E 010°32'0 0.0
2017-Aug-18 14:22N 57°26' E 010°32'0 0.0
2017-Aug-18 12:58N 57°26' E 010°32'0 0.0
2017-Aug-18 12:22N 57°26' E 010°32'0 0.0
2017-Aug-18 11:37N 57°26' E 010°32'0 0.0
2017-Aug-18 11:28N 57°26' E 010°32'0 0.0
2017-Aug-18 10:16N 57°26' E 010°32'0 0.0
2017-Aug-18 09:49N 57°26' E 010°32'0 0.0
2017-Aug-18 08:34N 57°26' E 010°32'0 0.0
2017-Aug-18 07:37N 57°26' E 010°32'0 0.0
2017-Aug-18 07:13N 57°26' E 010°32'0 0.0
2017-Aug-18 06:52N 57°26' E 010°32'0 0.0
2017-Aug-18 06:10N 57°26' E 010°32'0 0.0
2017-Aug-18 05:49N 57°26' E 010°32'0 0.0
2017-Aug-18 05:25N 57°26' E 010°32'0 0.0
2017-Aug-18 04:46N 57°26' E 010°32'0 0.0
2017-Aug-18 03:58N 57°26' E 010°32'0 0.0
2017-Aug-18 03:19N 57°26' E 010°32'0 0.0
2017-Aug-18 02:43N 57°26' E 010°32'0 0.0
2017-Aug-18 02:25N 57°26' E 010°32'0 0.0
2017-Aug-18 01:55N 57°26' E 010°32'0 0.0
2017-Aug-18 01:25N 57°26' E 010°32'0 0.0
2017-Aug-18 00:52N 57°26' E 010°32'0 0.0
2017-Aug-17 22:55N 57°26' E 010°32'0 0.0
2017-Aug-17 21:25N 57°26' E 010°32'0 0.0
2017-Aug-17 20:57N 57°26' E 010°32'0 0.0
2017-Aug-17 20:19N 57°26' E 010°32'0 0.0
2017-Aug-17 19:57N 57°26' E 010°32'0 0.0
2017-Aug-17 19:25N 57°26' E 010°32'0 0.0
2017-Aug-17 18:49N 57°26' E 010°32'0 0.0
2017-Aug-17 18:15N 57°26' E 010°32'0 0.0
2017-Aug-17 17:27N 57°26' E 010°32'0 0.0
2017-Aug-17 16:57N 57°26' E 010°32'0 0.0
2017-Aug-17 16:21N 57°26' E 010°32'0 0.0
2017-Aug-17 15:37N 57°26' E 010°32'0 0.0
2017-Aug-17 15:25N 57°26' E 010°32'0 0.0
2017-Aug-17 14:37N 57°26' E 010°32'0 0.0
2017-Aug-17 12:33N 57°26' E 010°32'0 0.0
2017-Aug-17 12:30N 57°26' E 010°32'0 0.0
2017-Aug-17 11:48N 57°26' E 010°32'0 0.0
2017-Aug-17 10:21N 57°26' E 010°32'0 0.0
2017-Aug-17 10:00N 57°26' E 010°32'0 0.0
2017-Aug-17 09:24N 57°26' E 010°32'0 0.0
2017-Aug-17 09:00N 57°26' E 010°32'0 0.0
2017-Aug-17 07:03N 57°26' E 010°32'0 0.0
2017-Aug-17 06:39N 57°26' E 010°32'0 0.0
2017-Aug-17 06:21N 57°26' E 010°32'0 0.0
2017-Aug-17 06:00N 57°26' E 010°32'0 0.0
2017-Aug-17 05:30N 57°26' E 010°32'0 0.0
2017-Aug-17 04:54N 57°26' E 010°32'0 0.0
2017-Aug-17 04:27N 57°26' E 010°32'0 0.0
2017-Aug-17 03:27N 57°26' E 010°32'0 0.0
2017-Aug-17 02:57N 57°26' E 010°32'0 0.0
2017-Aug-17 02:15N 57°26' E 010°32'0 0.0
2017-Aug-17 01:54N 57°26' E 010°32'0 0.0
2017-Aug-17 00:06N 57°26' E 010°32'0 0.0
2017-Aug-16 23:57N 57°26' E 010°32'0 0.0
2017-Aug-16 23:27N 57°26' E 010°32'0 0.0
2017-Aug-16 21:54N 57°26' E 010°32'0 0.0
2017-Aug-16 20:12N 57°26' E 010°32'0 0.0
2017-Aug-16 19:21N 57°26' E 010°32'0 0.0
2017-Aug-16 19:00N 57°26' E 010°32'0 0.0
2017-Aug-16 18:24N 57°26' E 010°32'0 0.0
2017-Aug-16 18:00N 57°26' E 010°32'0 0.0
2017-Aug-16 17:30N 57°26' E 010°32'0 0.0
2017-Aug-16 17:00N 57°26' E 010°32'0 0.0
2017-Aug-16 16:30N 57°26' E 010°32'0 0.0
2017-Aug-16 15:45N 57°26' E 010°32'0 0.0
2017-Aug-16 15:24N 57°26' E 010°32'0 0.0
2017-Aug-16 14:57N 57°26' E 010°32'0 0.0
2017-Aug-16 14:24N 57°26' E 010°32'0 0.0
2017-Aug-16 14:00N 57°26' E 010°32'0 0.0
2017-Aug-16 13:12N 57°26' E 010°32'0 0.0
2017-Aug-16 12:48N 57°26' E 010°32'0 0.0
2017-Aug-16 12:30N 57°26' E 010°32'0 0.0
2017-Aug-16 11:50N 57°26' E 010°32'0 0.0
2017-Aug-16 11:26N 57°26' E 010°32'0 0.0
2017-Aug-16 10:42N 57°26' E 010°32'0 0.0
2017-Aug-16 10:30N 57°26' E 010°32'0 0.0
2017-Aug-16 09:48N 57°26' E 010°32'0 0.0
2017-Aug-16 09:18N 57°26' E 010°32'0 0.0
2017-Aug-16 09:00N 57°26' E 010°32'0 0.0
2017-Aug-16 08:02N 57°26' E 010°32'0 0.0
2017-Aug-16 07:48N 57°26' E 010°32'0 0.0
2017-Aug-16 06:26N 57°26' E 010°32'0 0.0
2017-Aug-16 05:41N 57°26' E 010°32'0 0.0
2017-Aug-16 04:11N 57°26' E 010°32'0 0.0
2017-Aug-16 03:59N 57°26' E 010°32'0 0.0
2017-Aug-16 03:26N 57°26' E 010°32'0 0.0
2017-Aug-16 02:44N 57°26' E 010°32'0 0.0
2017-Aug-16 02:26N 57°26' E 010°32'0 0.0
2017-Aug-16 01:50N 57°26' E 010°32'0 0.0
2017-Aug-16 01:17N 57°26' E 010°32'0 0.0
2017-Aug-15 23:56N 57°26' E 010°32'0 0.0
2017-Aug-15 23:29N 57°26' E 010°32'0 0.0
2017-Aug-15 22:56N 57°26' E 010°32'0 0.0
2017-Aug-15 22:29N 57°26' E 010°32'0 0.0
2017-Aug-15 21:47N 57°26' E 010°32'0 0.0
2017-Aug-15 21:23N 57°26' E 010°32'0 0.0
2017-Aug-15 20:32N 57°26' E 010°32'0 0.0
2017-Aug-15 20:14N 57°26' E 010°32'0 0.0
2017-Aug-15 19:53N 57°26' E 010°32'0 0.0
2017-Aug-15 19:29N 57°26' E 010°32'0 0.0
2017-Aug-15 18:56N 57°26' E 010°32'0 0.0
2017-Aug-15 18:23N 57°26' E 010°32'0 0.0
2017-Aug-15 16:29N 57°26' E 010°32'0 0.0
2017-Aug-15 15:56N 57°26' E 010°32'0 0.0
2017-Aug-15 14:17N 57°26' E 010°32'0 0.0
2017-Aug-15 13:29N 57°26' E 010°32'0 0.0
2017-Aug-15 12:56N 57°26' E 010°32'0 0.0
2017-Aug-15 12:20N 57°26' E 010°32'0 0.0
2017-Aug-15 11:35N 57°26' E 010°32'0 0.0
2017-Aug-15 11:23N 57°26' E 010°32'0 0.0
2017-Aug-15 10:44N 57°26' E 010°32'0 0.0
2017-Aug-15 09:50N 57°26' E 010°32'0 0.0
2017-Aug-15 08:25N 57°26' E 010°32'0 0.0
2017-Aug-15 06:49N 57°26' E 010°32'0 0.0
2017-Aug-15 05:59N 57°26' E 010°32'0 0.0
2017-Aug-15 05:25N 57°26' E 010°32'0 0.0
2017-Aug-15 04:55N 57°26' E 010°32'0 0.0
2017-Aug-15 03:05N 57°26' E 010°32'0 0.0
2017-Aug-15 02:43N 57°26' E 010°32'0 0.0
2017-Aug-15 01:23N 57°26' E 010°32'0 0.0
2017-Aug-15 00:25N 57°26' E 010°32'0 0.0
2017-Aug-14 23:28N 57°26' E 010°32'0 0.0
2017-Aug-14 22:52N 57°26' E 010°32'0 0.0
2017-Aug-14 22:25N 57°26' E 010°32'0 0.0
2017-Aug-14 21:37N 57°26' E 010°32'0 0.0
2017-Aug-14 21:28N 57°26' E 010°32'0 0.0
2017-Aug-14 20:46N 57°26' E 010°32'0 0.0
2017-Aug-14 20:28N 57°26' E 010°32'0 0.0
2017-Aug-14 19:43N 57°26' E 010°32'0 0.0
2017-Aug-14 18:19N 57°26' E 010°32'0 0.0
2017-Aug-14 17:58N 57°26' E 010°32'0 0.0
2017-Aug-14 17:10N 57°26' E 010°32'0 0.0
2017-Aug-14 16:58N 57°26' E 010°32'0 0.0
2017-Aug-14 16:07N 57°26' E 010°32'0 0.0
2017-Aug-14 15:58N 57°26' E 010°32'0 0.0
2017-Aug-14 15:16N 57°26' E 010°32'0 0.0
2017-Aug-14 14:43N 57°26' E 010°32'0 0.0
2017-Aug-14 14:13N 57°26' E 010°32'0 0.0
2017-Aug-14 13:16N 57°26' E 010°32'0 0.0
2017-Aug-14 12:52N 57°26' E 010°32'0 0.0
2017-Aug-14 12:07N 57°26' E 010°32'0 0.0
2017-Aug-14 11:58N 57°26' E 010°32'0 0.0
2017-Aug-14 10:10N 57°26' E 010°32'0 0.0
2017-Aug-14 08:46N 57°26' E 010°32'0 0.0
2017-Aug-14 07:52N 57°26' E 010°32'0 0.0
2017-Aug-14 07:07N 57°26' E 010°32'  
Track history (hours):
 
Tides and Currents Weather Stations Pressure Air Temp Water Temp Dewpoint Dewpoint Depression Visibility Wind Speed Wind Dir Waves Ship Positions

Oceanographic research ship Gunnar Thorson (Denmark)

Detailed information on ship capabilities available from University of Delaware's Ocean Information Center.

Last reported at 2017-Aug-24 07:00 UTC. Time now 2017-Aug-24 06:59 UTC.
Position N 57°37' E 010°03'.

Length 48 m; draft 4.2 m.

Type: Military. MMSI: 219263000.

Date/timePositionNaut miles runAvg speedWind from/ knotsBaromVisibWave heightAir tempDewpointWater temp
2017-Aug-24 07:00N 57°37' E 010°03'0 0.9
2017-Aug-24 06:30N 57°37' E 010°02'3 5.1
2017-Aug-24 06:00N 57°36' E 009°58'0 0.1
2017-Aug-24 04:46N 57°36' E 009°58'0 0.0
2017-Aug-24 02:55N 57°36' E 009°58'0 0.0
2017-Aug-24 02:04N 57°36' E 009°58'0 0.0
2017-Aug-24 01:55N 57°36' E 009°58'0 0.0
2017-Aug-24 01:25N 57°36' E 009°58'0 0.0
2017-Aug-24 00:58N 57°36' E 009°58'0 0.0
2017-Aug-24 00:22N 57°36' E 009°58'0 0.0
2017-Aug-23 23:55N 57°36' E 009°58'0 0.0
2017-Aug-23 23:10N 57°36' E 009°58'0 0.0
2017-Aug-23 22:43N 57°36' E 009°58'0 0.0
2017-Aug-23 22:22N 57°36' E 009°58'0 0.0
2017-Aug-23 21:58N 57°36' E 009°58'0 0.0
2017-Aug-23 21:28N 57°36' E 009°58'0 0.0
2017-Aug-23 20:13N 57°36' E 009°58'0 0.0
2017-Aug-23 19:19N 57°36' E 009°58'0 0.0
2017-Aug-23 18:58N 57°36' E 009°58'0 0.0
2017-Aug-23 18:10N 57°36' E 009°58'0 0.0
2017-Aug-23 17:58N 57°36' E 009°58'0 0.0
2017-Aug-23 17:01N 57°36' E 009°58'0 0.0
2017-Aug-23 16:49N 57°36' E 009°58'0 0.0
2017-Aug-23 16:19N 57°36' E 009°58'0 0.0
2017-Aug-23 15:58N 57°36' E 009°58'0 0.0
2017-Aug-23 15:25N 57°36' E 009°58'0 0.0
2017-Aug-23 14:58N 57°36' E 009°58'2 1.5
2017-Aug-23 13:56N 57°37' E 009°60'3 6.0
2017-Aug-23 13:25N 57°40' E 010°03'2 4.9
2017-Aug-23 12:57N 57°42' E 010°04'7 5.0
2017-Aug-23 11:32N 57°42' E 010°17'2 6.9
2017-Aug-23 11:16N 57°42' E 010°20'0 1.4
2017-Aug-23 10:59N 57°42' E 010°20'0 0.1
2017-Aug-23 10:31N 57°42' E 010°20'0 0.2
2017-Aug-23 10:00N 57°42' E 010°21'0 0.4
2017-Aug-23 09:30N 57°43' E 010°20'0 0.2
2017-Aug-23 08:58N 57°42' E 010°20'4 8.3
2017-Aug-23 08:30N 57°44' E 010°27'511.1
2017-Aug-23 08:00N 57°46' E 010°36'4 7.7
2017-Aug-23 07:25N 57°44' E 010°44'511.6
2017-Aug-23 07:00N 57°39' E 010°39'3 6.9
2017-Aug-23 06:30N 57°38' E 010°34'1 0.3
2017-Aug-23 04:58N 57°38' E 010°34'0 0.0
2017-Aug-23 03:58N 57°38' E 010°34'0 0.0
2017-Aug-23 02:40N 57°38' E 010°34'0 0.0
2017-Aug-23 02:04N 57°38' E 010°34'0 0.0
2017-Aug-23 01:37N 57°38' E 010°34'0 0.0
2017-Aug-23 01:22N 57°38' E 010°34'0 0.0
2017-Aug-23 00:40N 57°38' E 010°34'0 0.0
2017-Aug-23 00:16N 57°38' E 010°34'0 0.0
2017-Aug-22 23:55N 57°38' E 010°34'0 0.0
2017-Aug-22 23:25N 57°38' E 010°34'0 0.0
2017-Aug-22 22:58N 57°38' E 010°34'0 0.0
2017-Aug-22 22:28N 57°38' E 010°34'0 0.0
2017-Aug-22 21:55N 57°38' E 010°34'0 0.0
2017-Aug-22 21:28N 57°38' E 010°34'0 0.0
2017-Aug-22 20:55N 57°38' E 010°34'0 0.0
2017-Aug-22 20:22N 57°38' E 010°34'0 0.0
2017-Aug-22 19:58N 57°38' E 010°34'0 0.0
2017-Aug-22 19:28N 57°38' E 010°34'0 0.0
2017-Aug-22 18:58N 57°38' E 010°34'0 0.0
2017-Aug-22 18:25N 57°38' E 010°34'0 0.8
2017-Aug-22 18:00N 57°38' E 010°34'4 8.2
2017-Aug-22 17:30N 57°34' E 010°37'611.4
2017-Aug-22 17:00N 57°29' E 010°39'4 8.4
2017-Aug-22 16:30N 57°26' E 010°33'0 0.3
2017-Aug-22 15:59N 57°26' E 010°32'0 0.0
2017-Aug-22 14:41N 57°26' E 010°32'0 0.0
2017-Aug-22 13:14N 57°26' E 010°32'0 0.1
2017-Aug-22 13:00N 57°26' E 010°32'3 6.3
2017-Aug-22 12:30N 57°27' E 010°38'5 9.8
2017-Aug-22 12:00N 57°32' E 010°37'1 2.8
2017-Aug-22 11:30N 57°33' E 010°35'1 2.0
2017-Aug-22 11:00N 57°34' E 010°34'0 0.7
2017-Aug-22 10:27N 57°34' E 010°34'0 0.7
2017-Aug-22 10:01N 57°33' E 010°34'0 0.8
2017-Aug-22 09:30N 57°33' E 010°35'0 0.9
2017-Aug-22 09:01N 57°34' E 010°36'1 1.1
2017-Aug-22 08:30N 57°34' E 010°37'1 2.2
2017-Aug-22 07:57N 57°33' E 010°37'1 2.9
2017-Aug-22 07:31N 57°31' E 010°36'2 3.2
2017-Aug-22 06:51N 57°30' E 010°39'411.1
2017-Aug-22 06:30N 57°26' E 010°37'1 1.5
2017-Aug-22 05:32N 57°25' E 010°35'010.8
2017-Aug-22 05:31N 57°25' E 010°35'1 0.6
2017-Aug-22 04:30N 57°24' E 010°35'0 0.0
2017-Aug-22 03:27N 57°24' E 010°35'0 0.0
2017-Aug-22 02:57N 57°24' E 010°35'0 0.0
2017-Aug-22 02:21N 57°24' E 010°35'0 0.0
2017-Aug-22 01:24N 57°24' E 010°35'0 0.0
2017-Aug-22 00:24N 57°24' E 010°35'0 0.0
2017-Aug-22 00:00N 57°24' E 010°35'0 0.0
2017-Aug-21 22:51N 57°24' E 010°35'0 0.0
2017-Aug-21 21:48N 57°24' E 010°35'0 0.0
2017-Aug-21 20:12N 57°24' E 010°35'0 0.0
2017-Aug-21 19:48N 57°24' E 010°35'0 0.0
2017-Aug-21 19:30N 57°24' E 010°35'0 0.1
2017-Aug-21 19:00N 57°24' E 010°35'4 7.9
2017-Aug-21 18:30N 57°28' E 010°39'510.3
2017-Aug-21 18:00N 57°32' E 010°45'510.6
2017-Aug-21 17:30N 57°36' E 010°51'3 5.9
2017-Aug-21 17:00N 57°38' E 010°53'1 2.1
2017-Aug-21 16:30N 57°39' E 010°51'1 1.5
2017-Aug-21 15:59N 57°38' E 010°53'1 1.3
2017-Aug-21 15:29N 57°39' E 010°52'1 2.5
2017-Aug-21 14:57N 57°39' E 010°54'1 1.5
2017-Aug-21 14:29N 57°39' E 010°53'1 1.4
2017-Aug-21 14:00N 57°39' E 010°52'3 5.9
2017-Aug-21 13:30N 57°36' E 010°48'611.5
2017-Aug-21 13:00N 57°32' E 010°43'4 8.2
2017-Aug-21 12:30N 57°28' E 010°39'4 7.9
2017-Aug-21 12:00N 57°26' E 010°33'0 0.4
2017-Aug-21 11:18N 57°26' E 010°32'0 0.0
2017-Aug-21 10:54N 57°26' E 010°32'0 0.0
2017-Aug-21 10:24N 57°26' E 010°32'0 0.0
2017-Aug-21 09:57N 57°26' E 010°32'0 0.0
2017-Aug-21 08:57N 57°26' E 010°32'0 0.0
2017-Aug-21 08:30N 57°26' E 010°32'0 0.0
2017-Aug-21 06:39N 57°26' E 010°32'0 0.0
2017-Aug-21 04:45N 57°26' E 010°32'0 0.0
2017-Aug-21 03:36N 57°26' E 010°32'0 0.0
2017-Aug-21 03:21N 57°26' E 010°32'0 0.0
2017-Aug-21 02:30N 57°26' E 010°32'0 0.0
2017-Aug-21 01:48N 57°26' E 010°32'0 0.0
2017-Aug-21 01:27N 57°26' E 010°32'0 0.0
2017-Aug-21 00:33N 57°26' E 010°32'0 0.0
2017-Aug-21 00:27N 57°26' E 010°32'0 0.0
2017-Aug-20 23:42N 57°26' E 010°32'0 0.0
2017-Aug-20 23:12N 57°26' E 010°32'0 0.0
2017-Aug-20 22:51N 57°26' E 010°32'0 0.0
2017-Aug-20 22:27N 57°26' E 010°32'0 0.0
2017-Aug-20 21:57N 57°26' E 010°32'0 0.0
2017-Aug-20 21:24N 57°26' E 010°32'0 0.0
2017-Aug-20 18:51N 57°26' E 010°32'0 0.0
2017-Aug-20 17:45N 57°26' E 010°32'0 0.0
2017-Aug-20 17:27N 57°26' E 010°32'0 0.0
2017-Aug-20 14:57N 57°26' E 010°32'0 0.0
2017-Aug-20 14:27N 57°26' E 010°32'0 0.0
2017-Aug-20 13:51N 57°26' E 010°32'0 0.0
2017-Aug-20 13:21N 57°26' E 010°32'0 0.0
2017-Aug-20 11:15N 57°26' E 010°32'0 0.0
2017-Aug-20 10:51N 57°26' E 010°32'0 0.0
2017-Aug-20 10:29N 57°26' E 010°32'0 0.0
2017-Aug-20 09:51N 57°26' E 010°32'0 0.0
2017-Aug-20 09:27N 57°26' E 010°32'0 0.0
2017-Aug-20 06:09N 57°26' E 010°32'0 0.0
2017-Aug-20 05:41N 57°26' E 010°32'0 0.0
2017-Aug-20 05:27N 57°26' E 010°32'0 0.0
2017-Aug-20 04:45N 57°26' E 010°32'0 0.0
2017-Aug-20 02:59N 57°26' E 010°32'0 0.0
2017-Aug-20 02:08N 57°26' E 010°32'0 0.0
2017-Aug-20 01:56N 57°26' E 010°32'0 0.0
2017-Aug-20 01:29N 57°26' E 010°32'0 0.0
2017-Aug-20 00:38N 57°26' E 010°32'0 0.0
2017-Aug-19 23:08N 57°26' E 010°32'0 0.0
2017-Aug-19 22:56N 57°26' E 010°32'0 0.0
2017-Aug-19 21:44N 57°26' E 010°32'0 0.0
2017-Aug-19 21:26N 57°26' E 010°32'0 0.0
2017-Aug-19 20:50N 57°26' E 010°32'0 0.0
2017-Aug-19 20:14N 57°26' E 010°32'0 0.0
2017-Aug-19 19:53N 57°26' E 010°32'0 0.0
2017-Aug-19 19:14N 57°26' E 010°32'0 0.0
2017-Aug-19 18:44N 57°26' E 010°32'0 0.0
2017-Aug-19 16:32N 57°26' E 010°32'0 0.0
2017-Aug-19 16:14N 57°26' E 010°32'0 0.0
2017-Aug-19 15:53N 57°26' E 010°32'0 0.0
2017-Aug-19 14:53N 57°26' E 010°32'0 0.0
2017-Aug-19 13:23N 57°26' E 010°32'0 0.0
2017-Aug-19 12:38N 57°26' E 010°32'0 0.0
2017-Aug-19 11:38N 57°26' E 010°32'0 0.0
2017-Aug-19 11:11N 57°26' E 010°32'0 0.0
2017-Aug-19 10:53N 57°26' E 010°32'0 0.0
2017-Aug-19 10:29N 57°26' E 010°32'0 0.0
2017-Aug-19 09:14N 57°26' E 010°32'0 0.0
2017-Aug-19 08:47N 57°26' E 010°32'0 0.0
2017-Aug-19 08:17N 57°26' E 010°32'0 0.0
2017-Aug-19 07:32N 57°26' E 010°32'0 0.0
2017-Aug-19 07:20N 57°26' E 010°32'0 0.0
2017-Aug-19 06:56N 57°26' E 010°32'0 0.0
2017-Aug-19 06:29N 57°26' E 010°32'0 0.0
2017-Aug-19 05:23N 57°26' E 010°32'0 0.0
2017-Aug-19 04:56N 57°26' E 010°32'0 0.0
2017-Aug-19 03:10N 57°26' E 010°32'0 0.0
2017-Aug-19 02:08N 57°26' E 010°32'0 0.0
2017-Aug-18 22:14N 57°26' E 010°32'0 0.0
2017-Aug-18 21:58N 57°26' E 010°32'0 0.0
2017-Aug-18 21:14N 57°26' E 010°32'0 0.0
2017-Aug-18 20:44N 57°26' E 010°32'0 0.0
2017-Aug-18 20:28N 57°26' E 010°32'0 0.0
2017-Aug-18 19:52N 57°26' E 010°32'0 0.0
2017-Aug-18 19:25N 57°26' E 010°32'0 0.0
2017-Aug-18 18:58N 57°26' E 010°32'0 0.0
2017-Aug-18 18:19N 57°26' E 010°32'0 0.0
2017-Aug-18 17:55N 57°26' E 010°32'0 0.0
2017-Aug-18 16:19N 57°26' E 010°32'0 0.0
2017-Aug-18 15:52N 57°26' E 010°32'0 0.0
2017-Aug-18 14:22N 57°26' E 010°32'0 0.0
2017-Aug-18 12:58N 57°26' E 010°32'0 0.0
2017-Aug-18 12:22N 57°26' E 010°32'0 0.0
2017-Aug-18 11:37N 57°26' E 010°32'0 0.0
2017-Aug-18 11:28N 57°26' E 010°32'0 0.0
2017-Aug-18 10:16N 57°26' E 010°32'0 0.0
2017-Aug-18 09:49N 57°26' E 010°32'0 0.0
2017-Aug-18 08:34N 57°26' E 010°32'0 0.0
2017-Aug-18 07:37N 57°26' E 010°32'0 0.0
2017-Aug-18 07:13N 57°26' E 010°32'0 0.0
2017-Aug-18 06:52N 57°26' E 010°32'0 0.0
2017-Aug-18 06:10N 57°26' E 010°32'0 0.0
2017-Aug-18 05:49N 57°26' E 010°32'0 0.0
2017-Aug-18 05:25N 57°26' E 010°32'0 0.0
2017-Aug-18 04:46N 57°26' E 010°32'0 0.0
2017-Aug-18 03:58N 57°26' E 010°32'0 0.0
2017-Aug-18 03:19N 57°26' E 010°32'0 0.0
2017-Aug-18 02:43N 57°26' E 010°32'0 0.0
2017-Aug-18 02:25N 57°26' E 010°32'0 0.0
2017-Aug-18 01:55N 57°26' E 010°32'0 0.0
2017-Aug-18 01:25N 57°26' E 010°32'0 0.0
2017-Aug-18 00:52N 57°26' E 010°32'0 0.0
2017-Aug-17 22:55N 57°26' E 010°32'0 0.0
2017-Aug-17 21:25N 57°26' E 010°32'0 0.0
2017-Aug-17 20:57N 57°26' E 010°32'0 0.0
2017-Aug-17 20:19N 57°26' E 010°32'0 0.0
2017-Aug-17 19:57N 57°26' E 010°32'0 0.0
2017-Aug-17 19:25N 57°26' E 010°32'0 0.0
2017-Aug-17 18:49N 57°26' E 010°32'0 0.0
2017-Aug-17 18:15N 57°26' E 010°32'0 0.0
2017-Aug-17 17:27N 57°26' E 010°32'0 0.0
2017-Aug-17 16:57N 57°26' E 010°32'0 0.0
2017-Aug-17 16:21N 57°26' E 010°32'0 0.0
2017-Aug-17 15:37N 57°26' E 010°32'0 0.0
2017-Aug-17 15:25N 57°26' E 010°32'0 0.0
2017-Aug-17 14:37N 57°26' E 010°32'0 0.0
2017-Aug-17 12:33N 57°26' E 010°32'0 0.0
2017-Aug-17 12:30N 57°26' E 010°32'0 0.0
2017-Aug-17 11:48N 57°26' E 010°32'0 0.0
2017-Aug-17 10:21N 57°26' E 010°32'0 0.0
2017-Aug-17 10:00N 57°26' E 010°32'0 0.0
2017-Aug-17 09:24N 57°26' E 010°32'0 0.0
2017-Aug-17 09:00N 57°26' E 010°32'0 0.0
2017-Aug-17 07:03N 57°26' E 010°32'0 0.0
2017-Aug-17 06:39N 57°26' E 010°32'0 0.0
2017-Aug-17 06:21N 57°26' E 010°32'0 0.0
2017-Aug-17 06:00N 57°26' E 010°32'0 0.0
2017-Aug-17 05:30N 57°26' E 010°32'0 0.0
2017-Aug-17 04:54N 57°26' E 010°32'0 0.0
2017-Aug-17 04:27N 57°26' E 010°32'0 0.0
2017-Aug-17 03:27N 57°26' E 010°32'0 0.0
2017-Aug-17 02:57N 57°26' E 010°32'0 0.0
2017-Aug-17 02:15N 57°26' E 010°32'0 0.0
2017-Aug-17 01:54N 57°26' E 010°32'0 0.0
2017-Aug-17 00:06N 57°26' E 010°32'0 0.0
2017-Aug-16 23:57N 57°26' E 010°32'0 0.0
2017-Aug-16 23:27N 57°26' E 010°32'0 0.0
2017-Aug-16 21:54N 57°26' E 010°32'0 0.0
2017-Aug-16 20:12N 57°26' E 010°32'0 0.0
2017-Aug-16 19:21N 57°26' E 010°32'0 0.0
2017-Aug-16 19:00N 57°26' E 010°32'0 0.0
2017-Aug-16 18:24N 57°26' E 010°32'0 0.0
2017-Aug-16 18:00N 57°26' E 010°32'0 0.0
2017-Aug-16 17:30N 57°26' E 010°32'0 0.0
2017-Aug-16 17:00N 57°26' E 010°32'0 0.0
2017-Aug-16 16:30N 57°26' E 010°32'0 0.0
2017-Aug-16 15:45N 57°26' E 010°32'0 0.0
2017-Aug-16 15:24N 57°26' E 010°32'0 0.0
2017-Aug-16 14:57N 57°26' E 010°32'0 0.0
2017-Aug-16 14:24N 57°26' E 010°32'0 0.0
2017-Aug-16 14:00N 57°26' E 010°32'0 0.0
2017-Aug-16 13:12N 57°26' E 010°32'0 0.0
2017-Aug-16 12:48N 57°26' E 010°32'0 0.0
2017-Aug-16 12:30N 57°26' E 010°32'0 0.0
2017-Aug-16 11:50N 57°26' E 010°32'0 0.0
2017-Aug-16 11:26N 57°26' E 010°32'0 0.0
2017-Aug-16 10:42N 57°26' E 010°32'0 0.0
2017-Aug-16 10:30N 57°26' E 010°32'0 0.0
2017-Aug-16 09:48N 57°26' E 010°32'0 0.0
2017-Aug-16 09:18N 57°26' E 010°32'0 0.0
2017-Aug-16 09:00N 57°26' E 010°32'0 0.0
2017-Aug-16 08:02N 57°26' E 010°32'0 0.0
2017-Aug-16 07:48N 57°26' E 010°32'0 0.0
2017-Aug-16 06:26N 57°26' E 010°32'0 0.0
2017-Aug-16 05:41N 57°26' E 010°32'0 0.0
2017-Aug-16 04:11N 57°26' E 010°32'0 0.0
2017-Aug-16 03:59N 57°26' E 010°32'0 0.0
2017-Aug-16 03:26N 57°26' E 010°32'0 0.0
2017-Aug-16 02:44N 57°26' E 010°32'0 0.0
2017-Aug-16 02:26N 57°26' E 010°32'0 0.0
2017-Aug-16 01:50N 57°26' E 010°32'0 0.0
2017-Aug-16 01:17N 57°26' E 010°32'0 0.0
2017-Aug-15 23:56N 57°26' E 010°32'0 0.0
2017-Aug-15 23:29N 57°26' E 010°32'0 0.0
2017-Aug-15 22:56N 57°26' E 010°32'0 0.0
2017-Aug-15 22:29N 57°26' E 010°32'0 0.0
2017-Aug-15 21:47N 57°26' E 010°32'0 0.0
2017-Aug-15 21:23N 57°26' E 010°32'0 0.0
2017-Aug-15 20:32N 57°26' E 010°32'0 0.0
2017-Aug-15 20:14N 57°26' E 010°32'0 0.0
2017-Aug-15 19:53N 57°26' E 010°32'0 0.0
2017-Aug-15 19:29N 57°26' E 010°32'0 0.0
2017-Aug-15 18:56N 57°26' E 010°32'0 0.0
2017-Aug-15 18:23N 57°26' E 010°32'0 0.0
2017-Aug-15 16:29N 57°26' E 010°32'0 0.0
2017-Aug-15 15:56N 57°26' E 010°32'0 0.0
2017-Aug-15 14:17N 57°26' E 010°32'0 0.0
2017-Aug-15 13:29N 57°26' E 010°32'0 0.0
2017-Aug-15 12:56N 57°26' E 010°32'0 0.0
2017-Aug-15 12:20N 57°26' E 010°32'0 0.0
2017-Aug-15 11:35N 57°26' E 010°32'0 0.0
2017-Aug-15 11:23N 57°26' E 010°32'0 0.0
2017-Aug-15 10:44N 57°26' E 010°32'0 0.0
2017-Aug-15 09:50N 57°26' E 010°32'0 0.0
2017-Aug-15 08:25N 57°26' E 010°32'0 0.0
2017-Aug-15 06:49N 57°26' E 010°32'0 0.0
2017-Aug-15 05:59N 57°26' E 010°32'0 0.0
2017-Aug-15 05:25N 57°26' E 010°32'0 0.0
2017-Aug-15 04:55N 57°26' E 010°32'0 0.0
2017-Aug-15 03:05N 57°26' E 010°32'0 0.0
2017-Aug-15 02:43N 57°26' E 010°32'0 0.0
2017-Aug-15 01:23N 57°26' E 010°32'0 0.0
2017-Aug-15 00:25N 57°26' E 010°32'0 0.0
2017-Aug-14 23:28N 57°26' E 010°32'0 0.0
2017-Aug-14 22:52N 57°26' E 010°32'0 0.0
2017-Aug-14 22:25N 57°26' E 010°32'0 0.0
2017-Aug-14 21:37N 57°26' E 010°32'0 0.0
2017-Aug-14 21:28N 57°26' E 010°32'0 0.0
2017-Aug-14 20:46N 57°26' E 010°32'0 0.0
2017-Aug-14 20:28N 57°26' E 010°32'0 0.0
2017-Aug-14 19:43N 57°26' E 010°32'0 0.0
2017-Aug-14 18:19N 57°26' E 010°32'0 0.0
2017-Aug-14 17:58N 57°26' E 010°32'0 0.0
2017-Aug-14 17:10N 57°26' E 010°32'0 0.0
2017-Aug-14 16:58N 57°26' E 010°32'0 0.0
2017-Aug-14 16:07N 57°26' E 010°32'0 0.0
2017-Aug-14 15:58N 57°26' E 010°32'0 0.0
2017-Aug-14 15:16N 57°26' E 010°32'0 0.0
2017-Aug-14 14:43N 57°26' E 010°32'0 0.0
2017-Aug-14 14:13N 57°26' E 010°32'0 0.0
2017-Aug-14 13:16N 57°26' E 010°32'0 0.0
2017-Aug-14 12:52N 57°26' E 010°32'0 0.0
2017-Aug-14 12:07N 57°26' E 010°32'0 0.0
2017-Aug-14 11:58N 57°26' E 010°32'0 0.0
2017-Aug-14 10:10N 57°26' E 010°32'0 0.0
2017-Aug-14 08:46N 57°26' E 010°32'0 0.0
2017-Aug-14 07:52N 57°26' E 010°32'0 0.0
2017-Aug-14 07:07N 57°26' E 010°32'  

Dump ship's entire track history